Time;durP1;ratioP1;P1;durP2;ratioP2;P2;SDS_P1;SDS_P2;PMS_P1;PMS_P2;Temp;Humidity;BMP_temperature;BMP_pressure;BME280_temperature;BME280_humidity;BME280_pressure;Samples;Min_cycle;Max_cycle;Signal;HPM_P1;HPM_P2
2022/03/24 00:02:22;;;;;;;11.40;6.60;;;21.70;42.60;;;;;;4970281;28;20111;-72
2022/03/24 00:04:48;;;;;;;10.85;6.60;;;21.70;42.30;;;;;;4970854;28;20400;-72
2022/03/24 00:07:14;;;;;;;10.07;6.10;;;21.70;42.20;;;;;;4970410;28;20026;-72
2022/03/24 00:09:40;;;;;;;10.70;6.18;;;21.70;42.40;;;;;;4969147;28;20074;-72
2022/03/24 00:12:06;;;;;;;9.20;6.18;;;21.70;42.50;;;;;;4968509;28;20031;-72
2022/03/24 00:14:33;;;;;;;9.52;6.07;;;21.70;42.20;;;;;;4937281;28;20438;-72
2022/03/24 00:16:58;;;;;;;9.43;6.15;;;21.70;42.30;;;;;;4952950;28;20042;-72
2022/03/24 00:19:24;;;;;;;8.77;5.82;;;21.70;42.10;;;;;;4952873;28;20030;-72
2022/03/24 00:21:50;;;;;;;9.98;5.85;;;21.70;42.60;;;;;;4968781;28;20019;-72
2022/03/24 00:24:16;;;;;;;10.48;6.13;;;21.70;42.50;;;;;;4952753;28;20054;-72
2022/03/24 00:26:42;;;;;;;10.65;6.22;;;21.70;42.60;;;;;;4970139;28;20435;-72
2022/03/24 00:29:09;;;;;;;9.30;5.90;;;21.70;42.70;;;;;;4952759;28;20058;-72
2022/03/24 00:31:35;;;;;;;10.10;6.10;;;21.70;42.60;;;;;;4968634;28;20053;-72
2022/03/24 00:34:02;;;;;;;9.50;6.38;;;21.70;42.50;;;;;;4968767;28;20403;-72
2022/03/24 00:36:28;;;;;;;8.38;5.38;;;21.70;42.70;;;;;;4969926;28;20042;-72
2022/03/24 00:38:55;;;;;;;11.02;6.22;;;21.70;42.80;;;;;;4968460;28;20137;-72
2022/03/24 00:41:22;;;;;;;11.88;6.60;;;21.70;42.50;;;;;;4969652;28;20507;-72
2022/03/24 00:43:48;;;;;;;10.38;6.75;;;21.70;42.50;;;;;;4936531;28;20062;-72
2022/03/24 00:46:16;;;;;;;8.98;6.18;;;21.70;42.40;;;;;;4952754;28;20040;-72
2022/03/24 00:48:42;;;;;;;9.68;5.78;;;21.70;42.40;;;;;;4952378;28;20027;-72
2022/03/24 00:51:08;;;;;;;8.93;5.80;;;21.70;42.30;;;;;;4936742;28;20053;-72
2022/03/24 00:53:35;;;;;;;9.70;6.40;;;21.70;42.60;;;;;;4952193;28;20460;-72
2022/03/24 00:56:01;;;;;;;9.68;5.90;;;21.70;42.30;;;;;;4968474;28;20158;-71
2022/03/24 00:58:27;;;;;;;8.68;5.53;;;21.70;41.90;;;;;;4952695;28;20550;-72
2022/03/24 01:00:53;;;;;;;8.98;6.30;;;21.60;42.30;;;;;;4968610;28;20085;-72
2022/03/24 01:03:19;;;;;;;8.70;5.75;;;21.70;42.40;;;;;;4968203;28;20035;-72
2022/03/24 01:05:45;;;;;;;8.65;5.60;;;21.70;42.60;;;;;;4952706;28;20030;-72
2022/03/24 01:08:10;;;;;;;11.18;6.18;;;21.70;42.30;;;;;;4936318;28;20122;-72
2022/03/24 01:10:37;;;;;;;8.32;5.72;;;21.70;42.30;;;;;;4970146;28;20035;-71
2022/03/24 01:13:03;;;;;;;9.82;5.75;;;21.60;42.50;;;;;;4967985;28;20148;-72
2022/03/24 01:15:30;;;;;;;8.27;6.00;;;21.70;42.70;;;;;;4968502;28;20092;-72
2022/03/24 01:17:59;;;;;;;9.82;5.93;;;21.70;42.60;;;;;;4968297;28;20114;-72
2022/03/24 01:20:30;;;;;;;8.10;5.35;;;21.70;42.20;;;;;;4936786;28;20030;-72
2022/03/24 01:22:59;;;;;;;9.00;5.95;;;21.60;42.30;;;;;;4952251;28;20188;-72
2022/03/24 01:25:27;;;;;;;8.25;5.88;;;21.70;42.40;;;;;;4952175;28;20441;-72
2022/03/24 01:27:53;;;;;;;9.70;5.70;;;21.70;42.40;;;;;;4952200;28;20160;-72
2022/03/24 01:30:21;;;;;;;9.10;5.93;;;21.70;42.70;;;;;;4968441;28;20043;-72
2022/03/24 01:32:47;;;;;;;9.40;5.80;;;21.70;42.60;;;;;;4969382;28;20027;-71
2022/03/24 01:35:14;;;;;;;7.55;5.40;;;21.70;42.70;;;;;;4952320;28;20111;-72
2022/03/24 01:37:41;;;;;;;9.60;5.65;;;21.70;42.80;;;;;;4967930;28;20057;-72
2022/03/24 01:40:09;;;;;;;9.80;5.93;;;21.70;42.70;;;;;;4952494;28;20045;-72
2022/03/24 01:42:37;;;;;;;9.68;6.15;;;21.70;42.70;;;;;;4967747;28;20458;-72
2022/03/24 01:45:05;;;;;;;7.95;5.45;;;21.70;42.50;;;;;;4952250;28;20041;-72
2022/03/24 01:47:32;;;;;;;7.60;5.28;;;21.70;42.60;;;;;;4967921;28;20093;-72
2022/03/24 01:49:58;;;;;;;9.02;5.78;;;21.70;42.50;;;;;;4952154;28;20043;-72
2022/03/24 01:52:26;;;;;;;9.95;6.03;;;21.70;42.20;;;;;;4954581;28;20039;-72
2022/03/24 01:54:57;;;;;;;9.43;5.72;;;21.70;42.20;;;;;;4955453;28;20399;-72
2022/03/24 01:57:26;;;;;;;7.47;5.28;;;21.60;42.30;;;;;;4971503;28;20042;-72
2022/03/24 01:59:53;;;;;;;8.85;5.78;;;21.70;42.60;;;;;;4971252;28;20125;-72
2022/03/24 02:02:20;;;;;;;8.07;5.43;;;21.70;42.20;;;;;;4970994;28;20436;-72
2022/03/24 02:04:47;;;;;;;8.10;5.55;;;21.60;42.10;;;;;;4955718;28;20062;-72
2022/03/24 02:07:16;;;;;;;8.75;5.90;;;21.70;42.40;;;;;;4971285;28;20054;-72
2022/03/24 02:09:44;;;;;;;9.02;5.43;;;21.60;42.20;;;;;;4955470;28;20050;-72
2022/03/24 02:12:13;;;;;;;10.10;5.80;;;21.60;42.30;;;;;;4970786;28;20110;-72
2022/03/24 02:14:40;;;;;;;9.02;5.60;;;21.60;42.30;;;;;;4971410;28;20448;-72
2022/03/24 02:17:06;;;;;;;9.27;5.55;;;21.60;42.50;;;;;;4938848;28;20428;-72
2022/03/24 02:19:34;;;;;;;9.35;5.55;;;21.60;42.40;;;;;;4955137;28;20038;-72
2022/03/24 02:22:18;;;;;;;9.05;5.72;;;21.60;42.30;;;;;;4970690;28;20058;-72
2022/03/24 02:24:45;;;;;;;8.93;5.60;;;21.60;42.10;;;;;;4971216;28;20042;-72
2022/03/24 02:27:11;;;;;;;9.00;5.40;;;21.60;42.10;;;;;;4971069;28;20086;-72
2022/03/24 02:29:38;;;;;;;9.30;5.47;;;21.60;42.20;;;;;;4955226;28;20075;-72
2022/03/24 02:32:08;;;;;;;9.23;5.85;;;21.60;42.30;;;;;;4972143;28;20023;-72
2022/03/24 02:34:38;;;;;;;6.38;5.05;;;21.60;42.20;;;;;;4955080;28;20039;-72
2022/03/24 02:37:06;;;;;;;10.95;6.18;;;21.60;42.30;;;;;;4972005;28;20113;-72
2022/03/24 02:39:33;;;;;;;7.10;5.00;;;21.60;42.20;;;;;;4972353;28;20073;-72
2022/03/24 02:42:00;;;;;;;9.32;5.35;;;21.70;42.60;;;;;;4938895;28;20030;-72
2022/03/24 02:44:30;;;;;;;9.57;5.88;;;21.70;42.40;;;;;;4955125;28;20127;-72
2022/03/24 02:46:58;;;;;;;9.48;5.60;;;21.70;42.30;;;;;;4954519;28;20280;-72
2022/03/24 02:49:30;;;;;;;7.47;5.10;;;21.60;42.30;;;;;;4939115;28;20115;-72
2022/03/24 02:51:58;;;;;;;8.93;5.28;;;21.60;42.50;;;;;;4970493;28;20023;-72
2022/03/24 02:54:25;;;;;;;8.57;5.65;;;21.60;42.10;;;;;;4954857;28;20135;-72
2022/03/24 02:56:51;;;;;;;9.82;5.55;;;21.60;42.40;;;;;;4972422;28;20023;-72
2022/03/24 02:59:17;;;;;;;9.35;5.35;;;21.60;42.40;;;;;;4971733;28;20395;-72
2022/03/24 03:01:50;;;;;;;8.70;6.05;;;21.60;42.20;;;;;;4971558;28;20041;-73
2022/03/24 03:04:16;;;;;;;9.48;5.63;;;21.60;42.30;;;;;;4971101;28;20102;-72
2022/03/24 03:06:42;;;;;;;9.60;5.65;;;21.60;42.30;;;;;;4972100;28;20449;-73
2022/03/24 03:09:08;;;;;;;9.63;5.25;;;21.60;42.30;;;;;;4971781;28;20082;-73
2022/03/24 03:11:34;;;;;;;7.65;5.22;;;21.60;42.20;;;;;;4970613;28;20034;-73
2022/03/24 03:14:00;;;;;;;8.32;5.60;;;21.60;42.30;;;;;;4970045;28;20375;-73
2022/03/24 03:16:27;;;;;;;10.30;6.00;;;21.60;42.40;;;;;;4954551;28;20041;-72
2022/03/24 03:18:53;;;;;;;7.53;5.13;;;21.60;42.30;;;;;;4954322;28;20101;-73
2022/03/24 03:21:20;;;;;;;9.38;5.70;;;21.60;42.30;;;;;;4970295;28;20019;-72
2022/03/24 03:23:46;;;;;;;7.97;4.93;;;21.60;42.20;;;;;;4954114;28;20129;-72
2022/03/24 03:26:15;;;;;;;9.45;5.40;;;21.60;42.20;;;;;;4970054;28;20415;-72
2022/03/24 03:28:41;;;;;;;9.07;5.60;;;21.60;42.20;;;;;;4954047;28;20109;-72
2022/03/24 03:31:06;;;;;;;8.70;5.60;;;21.60;42.30;;;;;;4970294;28;20520;-72
2022/03/24 03:33:32;;;;;;;9.52;5.03;;;21.60;42.20;;;;;;4969765;28;20035;-72
2022/03/24 03:35:59;;;;;;;8.65;5.53;;;21.60;42.20;;;;;;4937965;28;20042;-72
2022/03/24 03:38:26;;;;;;;8.20;5.78;;;21.60;42.40;;;;;;4969519;28;20041;-72
2022/03/24 03:40:53;;;;;;;8.48;5.53;;;21.60;42.20;;;;;;4969670;28;20030;-72
2022/03/24 03:43:20;;;;;;;6.93;5.30;;;21.60;42.20;;;;;;4953184;28;20045;-73
2022/03/24 03:45:46;;;;;;;8.60;5.65;;;21.60;42.20;;;;;;4969731;28;20118;-72
2022/03/24 03:48:12;;;;;;;8.52;5.70;;;21.60;42.30;;;;;;4969461;28;20106;-72
2022/03/24 03:50:41;;;;;;;7.75;5.25;;;21.60;42.20;;;;;;4969673;28;20109;-72
2022/03/24 03:53:08;;;;;;;6.75;4.88;;;21.60;42.20;;;;;;4969544;28;20441;-72
2022/03/24 03:55:37;;;;;;;8.82;5.70;;;21.60;42.20;;;;;;4970957;28;20026;-72
2022/03/24 03:58:05;;;;;;;7.57;5.10;;;21.60;42.20;;;;;;4953150;28;20122;-72
2022/03/24 04:03:15;;;;;;;7.03;5.07;;;21.60;42.20;;;;;;4970186;28;20487;-73
2022/03/24 04:05:43;;;;;;;7.05;5.15;;;21.60;42.30;;;;;;4953607;28;20031;-72
2022/03/24 04:08:10;;;;;;;7.93;4.93;;;21.60;42.20;;;;;;4969085;28;20039;-73
2022/03/24 04:10:38;;;;;;;7.78;5.53;;;21.60;42.20;;;;;;4969379;28;20112;-73
2022/03/24 04:13:05;;;;;;;7.82;4.78;;;21.60;42.30;;;;;;4969006;28;20116;-73
2022/03/24 04:15:33;;;;;;;8.18;5.57;;;21.60;42.30;;;;;;4970503;28;20066;-73
2022/03/24 04:17:59;;;;;;;9.27;5.00;;;21.60;42.30;;;;;;4969342;28;20030;-72
2022/03/24 04:20:26;;;;;;;7.32;4.90;;;21.60;42.30;;;;;;4969445;28;20407;-73
2022/03/24 04:22:53;;;;;;;7.72;5.20;;;21.60;42.30;;;;;;4968971;28;20026;-72
2022/03/24 04:25:20;;;;;;;8.07;5.10;;;21.60;42.30;;;;;;4970551;28;20027;-73
2022/03/24 04:27:47;;;;;;;7.47;5.45;;;21.60;42.30;;;;;;4952919;28;20364;-72
2022/03/24 04:30:14;;;;;;;9.05;5.18;;;21.60;42.30;;;;;;4969193;28;20081;-72
2022/03/24 04:32:40;;;;;;;7.72;5.20;;;21.60;42.30;;;;;;4952738;28;20110;-73
2022/03/24 04:35:07;;;;;;;8.07;5.10;;;21.50;42.30;;;;;;4969478;28;20560;-72
2022/03/24 04:37:33;;;;;;;7.47;5.38;;;21.60;42.30;;;;;;4967695;23;20045;-68
2022/03/24 04:39:59;;;;;;;8.68;5.07;;;21.60;42.30;;;;;;4955367;28;20035;-68
2022/03/24 04:42:25;;;;;;;7.65;4.90;;;21.50;42.40;;;;;;4986453;28;20076;-67
2022/03/24 04:44:51;;;;;;;7.43;5.20;;;21.50;42.40;;;;;;4992039;28;20053;-68
2022/03/24 04:47:17;;;;;;;7.82;5.10;;;21.50;42.30;;;;;;4991815;28;20388;-68
2022/03/24 04:49:43;;;;;;;6.90;4.85;;;21.50;42.30;;;;;;4991635;28;20031;-68
2022/03/24 04:52:09;;;;;;;8.30;5.38;;;21.60;42.40;;;;;;4991455;28;20395;-67
2022/03/24 04:54:35;;;;;;;7.75;5.53;;;21.60;42.40;;;;;;4990425;28;20122;-68
2022/03/24 04:57:02;;;;;;;8.02;5.28;;;21.60;42.40;;;;;;4990580;28;20526;-65
2022/03/24 04:59:28;;;;;;;7.60;5.18;;;21.60;42.30;;;;;;4990492;28;20269;-65
2022/03/24 05:01:55;;;;;;;9.65;5.72;;;21.60;42.30;;;;;;4974140;28;20022;-65
2022/03/24 05:04:23;;;;;;;9.13;5.22;;;21.60;42.30;;;;;;4990458;28;20368;-66
2022/03/24 05:06:49;;;;;;;7.22;5.18;;;21.60;42.30;;;;;;4990175;28;20173;-65
2022/03/24 05:09:15;;;;;;;8.90;5.63;;;21.60;42.30;;;;;;4990314;28;20037;-65
2022/03/24 05:11:41;;;;;;;7.65;5.38;;;21.60;42.30;;;;;;4991871;28;20387;-66
2022/03/24 05:14:08;;;;;;;7.35;5.35;;;21.60;42.30;;;;;;4989932;28;20057;-65
2022/03/24 05:16:34;;;;;;;8.88;5.38;;;21.50;42.30;;;;;;4991431;28;20033;-66
2022/03/24 05:19:00;;;;;;;7.85;5.50;;;21.60;42.30;;;;;;4990178;28;20651;-66
2022/03/24 05:21:27;;;;;;;8.23;5.38;;;21.50;42.20;;;;;;4991670;28;20467;-65
2022/03/24 05:23:53;;;;;;;7.35;5.15;;;21.60;42.30;;;;;;4989936;28;20471;-66
2022/03/24 05:26:20;;;;;;;8.10;5.25;;;21.50;42.30;;;;;;4993050;28;20391;-65
2022/03/24 05:28:47;;;;;;;8.13;5.65;;;21.50;42.40;;;;;;4994822;28;20093;-66
2022/03/24 05:31:13;;;;;;;7.97;5.18;;;21.50;42.30;;;;;;4994086;28;20041;-66
2022/03/24 05:33:39;;;;;;;7.65;5.57;;;21.50;42.30;;;;;;4993498;28;20081;-66
2022/03/24 05:36:05;;;;;;;7.53;5.05;;;21.60;42.30;;;;;;4993925;28;20038;-66
2022/03/24 05:38:31;;;;;;;8.20;5.50;;;21.50;42.30;;;;;;4994993;28;20062;-65
2022/03/24 05:40:58;;;;;;;7.55;5.22;;;21.50;42.30;;;;;;4977671;28;20031;-66
2022/03/24 05:43:24;;;;;;;8.65;5.40;;;21.50;42.40;;;;;;4993211;28;20033;-66
2022/03/24 05:45:50;;;;;;;7.40;5.30;;;21.50;42.30;;;;;;4993563;28;20518;-65
2022/03/24 05:48:16;;;;;;;8.30;5.72;;;21.50;42.40;;;;;;4994916;28;20495;-66
2022/03/24 05:50:55;;;;;;;7.20;5.33;;;21.50;42.30;;;;;;4977373;28;20030;-65
2022/03/24 05:53:26;;;;;;;9.68;5.30;;;21.50;42.30;;;;;;4993292;28;20265;-66
2022/03/24 05:55:52;;;;;;;7.15;5.35;;;21.50;42.30;;;;;;4994656;28;20037;-66
2022/03/24 05:58:18;;;;;;;8.52;5.90;;;21.60;42.40;;;;;;4993593;28;20034;-66
2022/03/24 06:00:44;;;;;;;8.23;5.50;;;21.60;42.30;;;;;;4994394;28;20080;-66
2022/03/24 06:03:10;;;;;;;7.75;5.47;;;21.60;42.40;;;;;;4976940;28;20117;-66
2022/03/24 06:05:40;;;;;;;8.00;5.15;;;21.60;42.30;;;;;;4994561;28;20557;-66
2022/03/24 06:08:07;;;;;;;7.68;5.18;;;21.60;42.30;;;;;;4995129;28;20351;-66
2022/03/24 06:10:33;;;;;;;9.00;5.70;;;21.60;42.40;;;;;;4993288;28;20359;-66
2022/03/24 06:12:59;;;;;;;9.43;5.88;;;21.60;42.30;;;;;;4993129;28;20093;-68
2022/03/24 06:15:25;;;;;;;8.65;5.32;;;21.60;42.20;;;;;;4994079;28;20442;-68
2022/03/24 06:17:51;;;;;;;8.80;5.38;;;21.60;42.30;;;;;;4994337;28;20026;-68
2022/03/24 06:20:17;;;;;;;8.75;5.53;;;21.60;42.30;;;;;;4976963;28;20046;-68
2022/03/24 06:22:49;;;;;;;8.35;5.35;;;21.60;42.30;;;;;;4976948;28;20034;-68
2022/03/24 06:25:15;;;;;;;7.68;5.60;;;21.60;42.30;;;;;;4994032;28;20034;-66
2022/03/24 06:27:41;;;;;;;7.80;5.32;;;21.60;42.30;;;;;;4994036;28;20050;-66
2022/03/24 06:30:08;;;;;;;8.65;5.47;;;21.60;42.40;;;;;;4976891;28;20069;-69
2022/03/24 06:32:34;;;;;;;8.52;5.82;;;21.60;42.30;;;;;;4976461;28;20049;-68
2022/03/24 06:35:02;;;;;;;8.32;5.40;;;21.60;42.30;;;;;;4992763;28;20402;-68
2022/03/24 06:37:28;;;;;;;10.88;5.60;;;21.60;42.20;;;;;;4991024;28;20117;-68
2022/03/24 06:39:54;;;;;;;9.07;5.68;;;21.60;42.90;;;;;;4992655;28;20121;-68
2022/03/24 06:42:21;;;;;;;8.60;5.80;;;21.60;42.30;;;;;;4992478;28;20030;-69
2022/03/24 06:44:47;;;;;;;8.25;5.57;;;21.60;42.30;;;;;;4976364;28;20428;-66
2022/03/24 06:47:13;;;;;;;7.70;5.47;;;21.60;42.30;;;;;;4960294;28;20065;-67
2022/03/24 06:49:39;;;;;;;8.60;5.43;;;21.60;42.30;;;;;;4992374;28;20037;-67
2022/03/24 06:52:06;;;;;;;8.60;5.32;;;21.60;42.40;;;;;;4993300;28;20026;-67
2022/03/24 06:54:32;;;;;;;9.02;5.72;;;21.60;42.60;;;;;;4976320;28;20034;-67
2022/03/24 06:56:58;;;;;;;7.88;5.47;;;21.60;42.70;;;;;;4976230;28;20037;-68
2022/03/24 06:59:24;;;;;;;8.75;5.57;;;21.60;42.70;;;;;;4992244;28;20097;-67
2022/03/24 07:01:50;;;;;;;7.75;4.93;;;21.60;42.80;;;;;;4993466;28;20399;-66
2022/03/24 07:04:16;;;;;;;8.60;5.30;;;21.60;42.90;;;;;;4976412;28;20031;-66
2022/03/24 07:06:42;;;;;;;7.80;5.10;;;21.60;42.80;;;;;;4992085;28;20034;-66
2022/03/24 07:09:08;;;;;;;7.47;5.20;;;21.60;42.90;;;;;;4993276;28;20056;-67
2022/03/24 07:11:33;;;;;;;7.82;5.18;;;21.60;43.00;;;;;;4993359;28;20030;-66
2022/03/24 07:13:59;;;;;;;7.57;4.95;;;21.70;43.00;;;;;;4992941;28;20383;-67
2022/03/24 07:16:25;;;;;;;9.07;5.53;;;21.70;43.10;;;;;;4993059;28;20084;-66
2022/03/24 07:18:51;;;;;;;8.18;5.43;;;21.70;43.10;;;;;;4975685;28;20113;-66
2022/03/24 07:21:18;;;;;;;9.45;5.50;;;21.70;43.10;;;;;;4993150;28;20030;-67
2022/03/24 07:23:45;;;;;;;7.55;4.85;;;21.70;43.10;;;;;;4992810;28;20034;-67
2022/03/24 07:26:11;;;;;;;9.27;5.65;;;21.70;43.20;;;;;;4992856;28;20026;-67
2022/03/24 07:28:37;;;;;;;8.52;5.30;;;21.80;43.30;;;;;;4959258;28;20037;-67
2022/03/24 07:31:16;;;;;;;8.10;5.30;;;21.80;43.50;;;;;;4991567;28;20030;-67
2022/03/24 07:33:47;;;;;;;6.35;4.90;;;21.80;43.50;;;;;;4991394;28;20077;-66
2022/03/24 07:36:14;;;;;;;7.60;5.38;;;21.80;43.60;;;;;;4992869;28;20034;-67
2022/03/24 07:38:40;;;;;;;7.70;5.20;;;21.80;43.60;;;;;;4991310;28;20034;-67
2022/03/24 07:41:06;;;;;;;7.63;5.07;;;21.80;43.60;;;;;;4975110;28;20034;-67
2022/03/24 07:43:32;;;;;;;7.85;5.45;;;21.80;43.60;;;;;;4975062;28;20041;-67
2022/03/24 07:45:58;;;;;;;7.47;5.00;;;21.80;43.60;;;;;;4991632;28;20035;-67
2022/03/24 07:48:27;;;;;;;7.88;5.10;;;21.90;43.70;;;;;;4992150;28;20034;-67
2022/03/24 07:50:56;;;;;;;7.68;5.20;;;21.90;43.70;;;;;;4975354;28;20030;-67
2022/03/24 07:53:27;;;;;;;7.82;5.40;;;21.90;43.70;;;;;;4991123;28;20616;-68
2022/03/24 07:55:56;;;;;;;7.95;5.35;;;21.90;43.70;;;;;;4991374;28;20030;-67
2022/03/24 07:58:22;;;;;;;7.53;5.30;;;21.90;43.70;;;;;;4991074;28;20084;-68
2022/03/24 08:00:49;;;;;;;7.50;5.15;;;21.90;43.70;;;;;;4991173;28;20037;-67
2022/03/24 08:03:16;;;;;;;7.22;5.00;;;21.90;43.70;;;;;;4974590;28;20561;-67
2022/03/24 08:05:43;;;;;;;8.02;5.20;;;21.90;43.70;;;;;;4975034;28;20033;-67
2022/03/24 08:08:10;;;;;;;7.05;4.95;;;21.90;43.70;;;;;;4975363;28;20041;-67
2022/03/24 08:10:37;;;;;;;7.90;5.30;;;21.90;43.70;;;;;;4974858;28;20031;-68
2022/03/24 08:13:04;;;;;;;9.43;5.40;;;21.90;43.70;;;;;;4974384;28;20395;-68
2022/03/24 08:15:30;;;;;;;7.97;5.38;;;21.90;43.70;;;;;;4990845;28;20030;-67
2022/03/24 08:17:56;;;;;;;7.60;5.38;;;21.90;43.70;;;;;;4992036;28;20030;-68
2022/03/24 08:20:23;;;;;;;8.40;5.70;;;22.00;43.70;;;;;;4991847;28;20164;-67
2022/03/24 08:22:49;;;;;;;8.48;5.03;;;22.00;43.70;;;;;;4990925;28;20038;-68
2022/03/24 08:25:17;;;;;;;8.13;5.43;;;22.00;43.60;;;;;;4990911;28;20026;-67
2022/03/24 08:27:42;;;;;;;8.23;5.05;;;22.00;43.70;;;;;;4990773;28;20168;-67
2022/03/24 08:30:08;;;;;;;7.13;5.22;;;22.00;43.60;;;;;;4992009;28;20501;-68
2022/03/24 08:32:34;;;;;;;7.57;5.28;;;22.10;43.70;;;;;;4974368;28;20042;-68
2022/03/24 08:35:00;;;;;;;8.07;5.45;;;22.10;43.70;;;;;;4990581;28;20109;-68
2022/03/24 08:37:26;;;;;;;8.02;5.60;;;22.10;43.80;;;;;;4990489;28;20034;-68
2022/03/24 08:39:51;;;;;;;7.25;5.43;;;22.00;43.70;;;;;;4991990;28;20120;-68
2022/03/24 08:42:17;;;;;;;7.80;5.40;;;22.10;43.70;;;;;;4990262;28;20504;-67
2022/03/24 08:44:43;;;;;;;8.07;5.63;;;22.10;43.70;;;;;;4990810;28;20039;-68
2022/03/24 08:47:09;;;;;;;8.32;5.70;;;22.10;43.80;;;;;;4974460;28;20050;-67
2022/03/24 08:49:34;;;;;;;7.97;5.55;;;22.10;43.80;;;;;;4990437;28;20027;-67
2022/03/24 08:52:00;;;;;;;7.28;5.05;;;22.10;43.80;;;;;;4990171;28;20031;-68
2022/03/24 08:54:26;;;;;;;9.95;5.55;;;22.10;43.80;;;;;;4974488;28;20042;-67
2022/03/24 08:56:52;;;;;;;7.63;5.50;;;22.10;43.80;;;;;;4991629;28;20117;-68
2022/03/24 08:59:17;;;;;;;8.38;5.80;;;22.10;43.80;;;;;;4990525;28;20053;-67
2022/03/24 09:01:44;;;;;;;10.60;5.68;;;22.10;43.90;;;;;;4976377;28;20377;-68
2022/03/24 09:04:10;;;;;;;9.15;5.57;;;22.10;43.90;;;;;;4995450;28;20566;-68
2022/03/24 09:06:37;;;;;;;8.55;5.20;;;22.10;43.80;;;;;;4995736;28;20093;-68
2022/03/24 09:09:06;;;;;;;8.57;5.97;;;22.10;43.90;;;;;;4978203;28;20023;-68
2022/03/24 09:11:32;;;;;;;7.95;5.25;;;22.20;44.00;;;;;;4995496;28;20042;-68
2022/03/24 09:13:58;;;;;;;8.93;5.70;;;22.20;44.00;;;;;;4995448;28;20030;-68
2022/03/24 09:16:24;;;;;;;8.38;5.50;;;22.10;43.90;;;;;;4995301;28;20033;-68
2022/03/24 09:18:50;;;;;;;8.18;5.78;;;22.20;44.00;;;;;;4995514;28;20034;-68
2022/03/24 09:21:19;;;;;;;7.93;5.78;;;22.20;44.00;;;;;;4995164;28;20030;-67
2022/03/24 09:23:44;;;;;;;8.27;5.67;;;22.20;44.00;;;;;;4993791;28;20709;-68
2022/03/24 09:26:12;;;;;;;10.73;5.88;;;22.20;44.00;;;;;;4995342;28;20346;-67
2022/03/24 09:28:37;;;;;;;9.95;5.55;;;22.20;44.00;;;;;;4994133;28;20030;-67
2022/03/24 09:31:03;;;;;;;8.25;5.45;;;22.20;44.00;;;;;;4994094;28;20498;-67
2022/03/24 09:33:29;;;;;;;8.35;5.68;;;22.20;44.00;;;;;;4993534;28;20522;-67
2022/03/24 09:35:54;;;;;;;9.45;5.90;;;22.20;44.00;;;;;;4995060;28;20398;-67
2022/03/24 09:38:20;;;;;;;8.00;5.65;;;22.20;44.00;;;;;;4994874;28;20391;-68
2022/03/24 09:40:46;;;;;;;7.88;5.40;;;22.20;44.00;;;;;;4993636;28;20046;-68
2022/03/24 09:43:13;;;;;;;8.35;5.47;;;22.20;44.00;;;;;;4994488;28;20026;-68
2022/03/24 09:45:41;;;;;;;7.90;5.60;;;22.30;44.10;;;;;;4994984;28;20124;-68
2022/03/24 09:48:07;;;;;;;10.55;6.05;;;22.20;44.10;;;;;;4994620;28;20031;-68
2022/03/24 09:50:36;;;;;;;8.38;5.68;;;22.20;44.10;;;;;;4993567;28;20038;-67
2022/03/24 09:53:03;;;;;;;;;;;22.30;44.10;;;;;;4995317;28;20422;-68
2022/03/24 09:55:32;;;;;;;8.18;5.40;;;22.20;44.10;;;;;;4993502;28;20023;-68
2022/03/24 09:57:59;;;;;;;9.77;5.95;;;22.20;44.10;;;;;;4994566;28;20498;-67
2022/03/24 10:00:25;;;;;;;8.82;5.45;;;22.20;44.20;;;;;;4994554;28;20041;-68
2022/03/24 10:03:12;;;;;;;8.45;5.18;;;22.20;44.20;;;;;;4976841;28;20030;-68
2022/03/24 10:06:07;;;;;;;9.90;5.63;;;22.20;44.20;;;;;;4977365;28;20027;-67
2022/03/24 10:08:35;;;;;;;7.50;5.05;;;22.20;44.20;;;;;;4993320;28;20409;-67
2022/03/24 10:11:02;;;;;;;9.43;5.15;;;22.20;44.20;;;;;;4993396;28;20066;-67
2022/03/24 10:14:00;;;;;;;7.78;5.25;;;22.20;44.30;;;;;;4992800;28;20082;-67
2022/03/24 10:16:35;;;;;;;9.23;5.65;;;22.20;44.30;;;;;;4950627;28;20435;-68
2022/03/24 10:19:05;;;;;;;7.85;5.60;;;22.20;44.30;;;;;;4994253;28;20045;-68
2022/03/24 10:21:32;;;;;;;8.38;5.30;;;22.20;44.40;;;;;;4994037;28;20102;-68
2022/03/24 10:24:06;;;;;;;8.85;5.35;;;22.20;44.40;;;;;;4993985;28;20026;-67
2022/03/24 10:26:49;;;;;;;7.45;5.07;;;22.20;44.40;;;;;;4977006;28;20077;-68
2022/03/24 10:29:20;;;;;;;7.78;5.50;;;22.20;44.40;;;;;;4994115;28;20027;-67
2022/03/24 10:31:58;;;;;;;8.98;5.45;;;22.20;44.50;;;;;;4992571;28;20034;-67
2022/03/24 10:34:28;;;;;;;8.65;5.40;;;22.20;44.50;;;;;;4992807;28;20030;-68
2022/03/24 10:36:54;;;;;;;7.90;5.28;;;22.20;44.40;;;;;;4993943;28;20031;-68
2022/03/24 10:39:24;;;;;;;9.73;5.40;;;22.30;44.50;;;;;;4987094;23;20043;-71
2022/03/24 10:41:49;;;;;;;;;;;22.20;44.40;;;;;;4954769;28;20042;-70
2022/03/24 10:44:15;;;;;;;7.78;5.07;;;22.20;44.40;;;;;;4953642;28;19914;-70
2022/03/24 10:46:42;;;;;;;8.02;5.60;;;22.20;44.40;;;;;;4953707;29;20027;-70
2022/03/24 10:49:26;;;;;;;7.47;5.18;;;22.20;44.40;;;;;;4955042;28;20158;-70
2022/03/24 10:51:53;;;;;;;7.88;5.20;;;22.30;44.40;;;;;;4953618;29;20035;-70
2022/03/24 10:54:30;;;;;;;8.52;5.35;;;22.20;44.30;;;;;;4954823;28;20118;-71
2022/03/24 10:57:06;;;;;;;8.32;5.65;;;22.20;44.30;;;;;;4953614;29;20480;-71
2022/03/24 10:59:54;;;;;;;7.13;5.07;;;22.20;44.30;;;;;;4937679;29;20550;-71
2022/03/24 11:02:22;;;;;;;7.35;5.35;;;22.20;44.30;;;;;;4954575;29;20027;-70
2022/03/24 11:04:48;;;;;;;6.97;5.05;;;22.20;44.30;;;;;;4954682;28;20070;-71
2022/03/24 11:07:27;;;;;;;6.38;4.93;;;22.20;44.30;;;;;;4953300;28;20023;-71
2022/03/24 11:09:53;;;;;;;7.35;5.15;;;22.20;44.30;;;;;;4954519;28;20404;-71
2022/03/24 11:12:36;;;;;;;9.40;4.90;;;22.10;44.20;;;;;;4953130;29;20023;-71
2022/03/24 11:15:04;;;;;;;7.05;5.10;;;22.20;44.30;;;;;;4953475;29;20031;-71
2022/03/24 11:17:35;;;;;;;8.10;5.53;;;22.20;44.40;;;;;;4954321;29;20023;-71
2022/03/24 11:20:05;;;;;;;8.52;5.00;;;22.10;44.30;;;;;;4953186;29;20436;-71
2022/03/24 11:22:36;;;;;;;;;;;22.20;44.50;;;;;;4953431;29;20031;-71
2022/03/24 11:25:03;;;;;;;7.93;5.22;;;22.10;44.40;;;;;;4953755;28;19910;-71
2022/03/24 11:27:30;;;;;;;7.18;5.07;;;22.20;44.40;;;;;;4953250;29;20267;-71
2022/03/24 11:29:56;;;;;;;8.52;5.20;;;22.10;44.40;;;;;;4954166;28;20031;-71
2022/03/24 11:32:22;;;;;;;7.80;5.25;;;22.20;44.40;;;;;;4953842;29;20043;-72
2022/03/24 11:34:49;;;;;;;7.32;5.35;;;22.10;44.40;;;;;;4953193;28;20396;-71
2022/03/24 11:37:15;;;;;;;8.77;5.05;;;22.10;44.40;;;;;;4953991;29;20078;-71
2022/03/24 11:40:03;;;;;;;9.05;5.40;;;22.10;44.40;;;;;;4954155;28;20106;-71
2022/03/24 11:42:32;;;;;;;8.02;5.55;;;22.20;44.50;;;;;;4952546;29;20037;-71
2022/03/24 11:45:16;;;;;;;8.00;4.97;;;22.20;44.50;;;;;;4954028;28;20162;-72
2022/03/24 11:48:06;;;;;;;6.32;4.40;;;22.10;44.30;;;;;;4954066;28;20502;-71
2022/03/24 11:50:41;;;;;;;12.63;5.38;;;22.20;44.40;;;;;;4953965;29;20600;-71
2022/03/24 11:53:25;;;;;;;7.65;5.10;;;22.20;44.40;;;;;;4936520;29;20376;-71
2022/03/24 11:56:03;;;;;;;7.05;5.00;;;22.20;44.40;;;;;;4952564;29;20086;-71
2022/03/24 11:58:34;;;;;;;6.78;5.10;;;22.20;44.40;;;;;;4952472;28;20604;-71
2022/03/24 12:01:18;;;;;;;6.95;4.72;;;22.10;44.30;;;;;;4953804;29;20106;-71
2022/03/24 12:03:53;;;;;;;7.43;5.20;;;22.20;44.30;;;;;;4953021;28;20506;-71
2022/03/24 12:06:19;;;;;;;7.88;5.00;;;22.10;44.30;;;;;;4953617;29;20023;-71
2022/03/24 12:09:04;;;;;;;9.05;4.72;;;22.20;44.30;;;;;;4953471;28;20376;-72
2022/03/24 12:11:36;;;;;;;7.95;5.00;;;22.20;44.30;;;;;;4952292;29;20078;-71
2022/03/24 12:14:23;;;;;;;6.85;4.53;;;22.10;44.20;;;;;;4953174;29;20484;-71
2022/03/24 12:16:51;;;;;;;8.05;5.45;;;22.10;44.20;;;;;;4950595;28;20043;-71
2022/03/24 12:19:32;;;;;;;7.80;5.22;;;22.10;44.20;;;;;;4952319;28;20031;-72
2022/03/24 12:21:59;;;;;;;8.10;5.30;;;22.10;44.20;;;;;;4951929;29;20045;-72
2022/03/24 12:24:34;;;;;;;7.90;5.05;;;22.10;44.20;;;;;;4953349;28;20062;-72
2022/03/24 12:27:05;;;;;;;8.30;4.97;;;22.10;44.10;;;;;;4953318;29;20023;-72
2022/03/24 12:29:31;;;;;;;7.38;5.15;;;22.10;44.10;;;;;;4952043;28;20038;-72
2022/03/24 12:32:00;;;;;;;8.25;5.20;;;22.10;44.20;;;;;;4951760;29;20039;-71
2022/03/24 12:34:46;;;;;;;8.05;5.10;;;22.10;44.10;;;;;;4953163;28;20455;-72
2022/03/24 12:37:27;;;;;;;7.43;5.22;;;22.10;44.20;;;;;;4952059;29;20086;-71
2022/03/24 12:40:22;;;;;;;8.48;5.03;;;22.10;44.20;;;;;;4936005;29;20066;-72
2022/03/24 12:42:53;;;;;;;7.32;4.60;;;22.00;44.10;;;;;;4936553;28;20094;-72
2022/03/24 12:45:22;;;;;;;7.95;5.00;;;22.10;44.10;;;;;;4952339;29;20501;-72
2022/03/24 12:47:48;;;;;;;7.82;5.35;;;22.10;44.10;;;;;;4953126;28;20038;-72
2022/03/24 12:50:16;;;;;;;9.27;5.20;;;22.10;44.10;;;;;;4953090;29;20027;-72
2022/03/24 12:52:51;;;;;;;6.80;4.88;;;22.10;44.10;;;;;;4952761;28;20034;-72
2022/03/24 12:55:26;;;;;;;7.28;5.25;;;22.10;44.10;;;;;;4952972;29;20027;-72
2022/03/24 12:57:59;;;;;;;7.03;4.47;;;22.10;44.10;;;;;;4953025;28;20031;-72